EZY112 EINN-EINN
Flight info
| Callsign | EZY112 |
|---|---|
| Flight time | 0h 54m |
| Altitude | 23000 |
| Route | LONDU |
| Aircraft | A20N/M-SDE2E3FGHIRWXY/LB1 |
Departure
| Time | 2026-04-29 18:25 |
|---|---|
| Airport | Shannon Airport (EINN) |
Arrival
| Time | 2026-04-29 19:20 |
|---|---|
| Airport | Shannon Airport (EINN) |
| Time | Latitude | Longitude | Altitude | Speed | Heading |
|---|---|---|---|---|---|
| 2026-04-29 18:07 | 52.69371 | -8.92176 | 42 ft | 0 kts | 186° |
| 2026-04-29 18:13 | 52.69374 | -8.92175 | 43 ft | 1 kts | 183° |
| 2026-04-29 18:13 | 52.69380 | -8.92175 | 43 ft | 1 kts | 180° |
| 2026-04-29 18:14 | 52.69390 | -8.92175 | 41 ft | 2 kts | 178° |
| 2026-04-29 18:14 | 52.69402 | -8.92176 | 41 ft | 2 kts | 178° |
| 2026-04-29 18:14 | 52.69414 | -8.92177 | 38 ft | 2 kts | 178° |
| 2026-04-29 18:14 | 52.69426 | -8.92178 | 39 ft | 2 kts | 162° |
| 2026-04-29 18:15 | 52.69437 | -8.92187 | 41 ft | 2 kts | 139° |
| 2026-04-29 18:15 | 52.69458 | -8.92209 | 41 ft | 5 kts | 154° |
| 2026-04-29 18:15 | 52.69489 | -8.92229 | 40 ft | 5 kts | 149° |
| 2026-04-29 18:15 | 52.69498 | -8.92211 | 37 ft | 0 kts | 296° |
| 2026-04-29 18:17 | 52.69499 | -8.92213 | 36 ft | 2 kts | 296° |
| 2026-04-29 18:17 | 52.69510 | -8.92263 | 40 ft | 8 kts | 291° |
| 2026-04-29 18:17 | 52.69545 | -8.92371 | 42 ft | 14 kts | 305° |
| 2026-04-29 18:18 | 52.69627 | -8.92505 | 42 ft | 19 kts | 316° |
| 2026-04-29 18:18 | 52.69738 | -8.92680 | 42 ft | 24 kts | 315° |
| 2026-04-29 18:18 | 52.69820 | -8.92815 | 43 ft | 0 kts | 315° |
| 2026-04-29 18:20 | 52.69826 | -8.92826 | 43 ft | 4 kts | 315° |
| 2026-04-29 18:20 | 52.69864 | -8.92889 | 43 ft | 11 kts | 314° |
| 2026-04-29 18:20 | 52.69923 | -8.93008 | 44 ft | 15 kts | 288° |
| 2026-04-29 18:20 | 52.69871 | -8.93178 | 45 ft | 20 kts | 232° |
| 2026-04-29 18:21 | 52.69773 | -8.93380 | 46 ft | 25 kts | 232° |
| 2026-04-29 18:21 | 52.69653 | -8.93634 | 47 ft | 30 kts | 231° |
| 2026-04-29 18:21 | 52.69516 | -8.93928 | 52 ft | 34 kts | 231° |
| 2026-04-29 18:21 | 52.69413 | -8.94144 | 54 ft | 8 kts | 230° |
| 2026-04-29 18:22 | 52.69344 | -8.94217 | 52 ft | 17 kts | 202° |
| 2026-04-29 18:22 | 52.69305 | -8.94312 | 52 ft | 11 kts | 304° |
| 2026-04-29 18:22 | 52.69349 | -8.94285 | 52 ft | 7 kts | 65° |
| 2026-04-29 18:22 | 52.69382 | -8.94205 | 52 ft | 0 kts | 51° |
| 2026-04-29 18:24 | 52.69389 | -8.94193 | 51 ft | 9 kts | 51° |
| 2026-04-29 18:25 | 52.69621 | -8.93700 | 48 ft | 97 kts | 53° |
| 2026-04-29 18:25 | 52.70173 | -8.92531 | 50 ft | 157 kts | 52° |
| 2026-04-29 18:25 | 52.70869 | -8.91091 | 676 ft | 163 kts | 51° |
| 2026-04-29 18:25 | 52.71616 | -8.89611 | 1417 ft | 176 kts | 52° |
| 2026-04-29 18:26 | 52.72481 | -8.88058 | 2072 ft | 190 kts | 52° |
| 2026-04-29 18:26 | 52.73416 | -8.86309 | 2397 ft | 217 kts | 52° |
| 2026-04-29 18:26 | 52.74413 | -8.84505 | 2488 ft | 207 kts | 46° |
| 2026-04-29 18:26 | 52.75707 | -8.83527 | 2499 ft | 215 kts | 11° |
| 2026-04-29 18:27 | 52.77244 | -8.83798 | 2495 ft | 226 kts | 354° |
| 2026-04-29 18:27 | 52.78766 | -8.84370 | 2500 ft | 225 kts | 345° |
| 2026-04-29 18:27 | 52.80155 | -8.85673 | 2496 ft | 232 kts | 329° |
| 2026-04-29 18:27 | 52.81379 | -8.87433 | 2496 ft | 235 kts | 320° |
| 2026-04-29 18:28 | 52.82292 | -8.89673 | 2501 ft | 239 kts | 289° |
| 2026-04-29 18:28 | 52.82375 | -8.92316 | 2496 ft | 226 kts | 253° |
| 2026-04-29 18:28 | 52.81764 | -8.94571 | 2495 ft | 213 kts | 238° |
| 2026-04-29 18:28 | 52.81066 | -8.96658 | 2495 ft | 202 kts | 236° |
| 2026-04-29 18:29 | 52.80333 | -8.98744 | 2503 ft | 209 kts | 235° |
| 2026-04-29 18:29 | 52.79856 | -9.00107 | 2498 ft | 206 kts | 235° |
| 2026-04-29 18:29 | 52.78898 | -9.02831 | 2495 ft | 204 kts | 235° |
| 2026-04-29 18:29 | 52.78161 | -9.04838 | 2496 ft | 204 kts | 230° |
| 2026-04-29 18:30 | 52.77349 | -9.06732 | 2493 ft | 202 kts | 229° |
| 2026-04-29 18:30 | 52.76490 | -9.08586 | 2503 ft | 204 kts | 227° |
| 2026-04-29 18:30 | 52.75638 | -9.10404 | 2509 ft | 192 kts | 227° |
| 2026-04-29 18:30 | 52.74859 | -9.12082 | 2495 ft | 183 kts | 227° |
| 2026-04-29 18:31 | 52.74063 | -9.13754 | 2499 ft | 184 kts | 227° |
| 2026-04-29 18:31 | 52.73280 | -9.15417 | 2493 ft | 181 kts | 227° |
| 2026-04-29 18:31 | 52.72515 | -9.17079 | 2496 ft | 183 kts | 225° |
| 2026-04-29 18:31 | 52.71509 | -9.18190 | 2495 ft | 170 kts | 183° |
| 2026-04-29 18:32 | 52.70390 | -9.18212 | 2496 ft | 159 kts | 168° |
| 2026-04-29 18:32 | 52.68178 | -9.17939 | 2296 ft | 158 kts | 162° |
| 2026-04-29 18:32 | 52.67226 | -9.17238 | 2300 ft | 149 kts | 134° |
| 2026-04-29 18:33 | 52.66721 | -9.15827 | 2301 ft | 144 kts | 105° |
| 2026-04-29 18:33 | 52.66599 | -9.14231 | 2300 ft | 142 kts | 83° |
| 2026-04-29 18:33 | 52.66812 | -9.12631 | 2296 ft | 142 kts | 78° |
| 2026-04-29 18:33 | 52.67019 | -9.11069 | 2302 ft | 139 kts | 83° |
| 2026-04-29 18:34 | 52.67033 | -9.09476 | 2271 ft | 139 kts | 94° |
| 2026-04-29 18:34 | 52.66922 | -9.08412 | 2220 ft | 140 kts | 101° |
| 2026-04-29 18:34 | 52.66563 | -9.06365 | 1929 ft | 141 kts | 104° |
| 2026-04-29 18:34 | 52.66290 | -9.04844 | 1658 ft | 133 kts | 102° |
| 2026-04-29 18:35 | 52.66173 | -9.03428 | 1485 ft | 121 kts | 88° |
| 2026-04-29 18:35 | 52.66311 | -9.02035 | 1333 ft | 122 kts | 75° |
| 2026-04-29 18:35 | 52.66608 | -9.00724 | 1171 ft | 134 kts | 69° |
| 2026-04-29 18:35 | 52.67052 | -8.99283 | 1065 ft | 144 kts | 64° |
| 2026-04-29 18:36 | 52.67600 | -8.97852 | 837 ft | 151 kts | 56° |
| 2026-04-29 18:36 | 52.68281 | -8.96545 | 484 ft | 146 kts | 48° |
| 2026-04-29 18:36 | 52.68870 | -8.95305 | 250 ft | 129 kts | 54° |
| 2026-04-29 18:36 | 52.69393 | -8.94191 | 80 ft | 118 kts | 54° |
| 2026-04-29 18:37 | 52.69899 | -8.93108 | 45 ft | 131 kts | 51° |
| 2026-04-29 18:37 | 52.70594 | -8.91676 | 368 ft | 174 kts | 51° |
| 2026-04-29 18:37 | 52.71442 | -8.89915 | 855 ft | 220 kts | 53° |
| 2026-04-29 18:37 | 52.72496 | -8.87726 | 1393 ft | 265 kts | 54° |
| 2026-04-29 18:38 | 52.73804 | -8.85450 | 2265 ft | 279 kts | 43° |
| 2026-04-29 18:38 | 52.75380 | -8.83497 | 2454 ft | 289 kts | 31° |
| 2026-04-29 18:38 | 52.77357 | -8.82647 | 2494 ft | 302 kts | 6° |
| 2026-04-29 18:38 | 52.79429 | -8.83281 | 2497 ft | 308 kts | 340° |
| 2026-04-29 18:39 | 52.81186 | -8.85330 | 2495 ft | 315 kts | 314° |
| 2026-04-29 18:39 | 52.82305 | -8.88449 | 2500 ft | 320 kts | 289° |
| 2026-04-29 18:39 | 52.82577 | -8.92114 | 2497 ft | 326 kts | 264° |
| 2026-04-29 18:39 | 52.81952 | -8.95647 | 2503 ft | 316 kts | 240° |
| 2026-04-29 18:40 | 52.80842 | -8.98783 | 2498 ft | 318 kts | 235° |
| 2026-04-29 18:40 | 52.79684 | -9.01918 | 2498 ft | 314 kts | 235° |
| 2026-04-29 18:40 | 52.78584 | -9.04894 | 2495 ft | 294 kts | 235° |
| 2026-04-29 18:40 | 52.77505 | -9.07799 | 2497 ft | 297 kts | 235° |
| 2026-04-29 18:41 | 52.72994 | -9.13632 | 2501 ft | 271 kts | 178° |
| 2026-04-29 18:41 | 52.71181 | -9.13806 | 2495 ft | 251 kts | 178° |
| 2026-04-29 18:42 | 52.69479 | -9.13971 | 2495 ft | 238 kts | 177° |
| 2026-04-29 18:42 | 52.67878 | -9.14146 | 2491 ft | 222 kts | 177° |
| 2026-04-29 18:42 | 52.66411 | -9.14165 | 2485 ft | 199 kts | 160° |
| 2026-04-29 18:42 | 52.65218 | -9.13332 | 2489 ft | 180 kts | 151° |
| 2026-04-29 18:43 | 52.64152 | -9.12475 | 2489 ft | 159 kts | 129° |
| 2026-04-29 18:43 | 52.63723 | -9.10953 | 2331 ft | 149 kts | 93° |
| 2026-04-29 18:43 | 52.63801 | -9.09190 | 1926 ft | 160 kts | 82° |
| 2026-04-29 18:43 | 52.64012 | -9.07373 | 1684 ft | 161 kts | 78° |
| 2026-04-29 18:44 | 52.64270 | -9.05721 | 1639 ft | 132 kts | 75° |
| 2026-04-29 18:44 | 52.64647 | -9.04342 | 1693 ft | 137 kts | 62° |
| 2026-04-29 18:44 | 52.65207 | -9.03071 | 1551 ft | 137 kts | 56° |
| 2026-04-29 18:44 | 52.65775 | -9.01902 | 1330 ft | 124 kts | 56° |
| 2026-04-29 18:45 | 52.66308 | -9.00825 | 1131 ft | 124 kts | 56° |
| 2026-04-29 18:45 | 52.66884 | -8.99711 | 942 ft | 133 kts | 54° |
| 2026-04-29 18:45 | 52.67403 | -8.98510 | 782 ft | 124 kts | 58° |
| 2026-04-29 18:45 | 52.67912 | -8.97328 | 598 ft | 128 kts | 52° |
| 2026-04-29 18:46 | 52.68474 | -8.96159 | 381 ft | 131 kts | 53° |
| 2026-04-29 18:46 | 52.69022 | -8.94996 | 217 ft | 128 kts | 53° |
| 2026-04-29 18:46 | 52.69551 | -8.93856 | 64 ft | 122 kts | 54° |
| 2026-04-29 18:46 | 52.70072 | -8.92704 | 155 ft | 142 kts | 53° |
| 2026-04-29 18:47 | 52.70766 | -8.91205 | 599 ft | 196 kts | 52° |
| 2026-04-29 18:47 | 52.71735 | -8.89175 | 1174 ft | 250 kts | 49° |
| 2026-04-29 18:47 | 52.73376 | -8.87658 | 1986 ft | 288 kts | 13° |
| 2026-04-29 18:47 | 52.75353 | -8.88270 | 2249 ft | 309 kts | 330° |
| 2026-04-29 18:48 | 52.76613 | -8.91226 | 2272 ft | 325 kts | 286° |
| 2026-04-29 18:48 | 52.76566 | -8.94852 | 1971 ft | 323 kts | 252° |
| 2026-04-29 18:48 | 52.75530 | -8.98061 | 1475 ft | 314 kts | 229° |
| 2026-04-29 18:48 | 52.74179 | -9.00729 | 1571 ft | 304 kts | 225° |
| 2026-04-29 18:49 | 52.72604 | -9.03428 | 1579 ft | 352 kts | 220° |
| 2026-04-29 18:49 | 52.70561 | -9.06000 | 1716 ft | 369 kts | 210° |
| 2026-04-29 18:49 | 52.68410 | -9.07786 | 1499 ft | 325 kts | 193° |
| 2026-04-29 18:49 | 52.66317 | -9.08094 | 1117 ft | 285 kts | 166° |
| 2026-04-29 18:50 | 52.64681 | -9.06920 | 1207 ft | 230 kts | 134° |
| 2026-04-29 18:50 | 52.63999 | -9.04997 | 1605 ft | 175 kts | 92° |
| 2026-04-29 18:50 | 52.64455 | -9.03182 | 1647 ft | 180 kts | 42° |
| 2026-04-29 18:50 | 52.65531 | -9.02252 | 1276 ft | 169 kts | 33° |
| 2026-04-29 18:51 | 52.66379 | -9.01205 | 994 ft | 138 kts | 54° |
| 2026-04-29 18:51 | 52.66874 | -8.99960 | 835 ft | 130 kts | 62° |
| 2026-04-29 18:51 | 52.67356 | -8.98701 | 721 ft | 129 kts | 58° |
| 2026-04-29 18:51 | 52.67869 | -8.97485 | 574 ft | 127 kts | 53° |
| 2026-04-29 18:52 | 52.68404 | -8.96310 | 349 ft | 127 kts | 52° |
| 2026-04-29 18:52 | 52.68957 | -8.95145 | 219 ft | 129 kts | 54° |
| 2026-04-29 18:52 | 52.69492 | -8.93991 | 70 ft | 125 kts | 54° |
| 2026-04-29 18:52 | 52.69986 | -8.92927 | 42 ft | 125 kts | 51° |
| 2026-04-29 18:53 | 52.70658 | -8.91544 | 407 ft | 171 kts | 51° |
| 2026-04-29 18:53 | 52.71494 | -8.89763 | 1010 ft | 223 kts | 53° |
| 2026-04-29 18:53 | 52.72817 | -8.88014 | 1888 ft | 273 kts | 21° |
| 2026-04-29 18:53 | 52.74867 | -8.88242 | 2469 ft | 336 kts | 339° |
| 2026-04-29 18:54 | 52.76605 | -8.91265 | 2438 ft | 399 kts | 293° |
| 2026-04-29 18:54 | 52.77026 | -8.95682 | 2653 ft | 382 kts | 263° |
| 2026-04-29 18:54 | 52.75925 | -8.99401 | 2313 ft | 351 kts | 221° |
| 2026-04-29 18:54 | 52.74038 | -9.01615 | 2178 ft | 321 kts | 205° |
| 2026-04-29 18:55 | 52.72113 | -9.03279 | 1889 ft | 306 kts | 203° |
| 2026-04-29 18:55 | 52.70231 | -9.04925 | 1763 ft | 306 kts | 205° |
| 2026-04-29 18:55 | 52.68397 | -9.06580 | 1641 ft | 293 kts | 205° |
| 2026-04-29 18:55 | 52.66680 | -9.08238 | 1515 ft | 279 kts | 212° |
| 2026-04-29 18:56 | 52.65296 | -9.10327 | 1607 ft | 259 kts | 223° |
| 2026-04-29 18:56 | 52.64092 | -9.12576 | 1669 ft | 272 kts | 226° |
| 2026-04-29 18:56 | 52.62696 | -9.14662 | 2498 ft | 249 kts | 196° |
| 2026-04-29 18:56 | 52.61246 | -9.14678 | 2852 ft | 202 kts | 143° |
| 2026-04-29 18:57 | 52.60768 | -9.12664 | 1723 ft | 220 kts | 62° |
| 2026-04-29 18:57 | 52.61719 | -9.10984 | 2048 ft | 193 kts | 49° |
| 2026-04-29 18:57 | 52.62675 | -9.09331 | 1869 ft | 208 kts | 52° |
| 2026-04-29 18:57 | 52.63492 | -9.07435 | 1816 ft | 200 kts | 63° |
| 2026-04-29 18:58 | 52.64127 | -9.05405 | 1655 ft | 196 kts | 65° |
| 2026-04-29 18:58 | 52.64838 | -9.03502 | 1376 ft | 195 kts | 55° |
| 2026-04-29 18:58 | 52.65756 | -9.01921 | 1058 ft | 185 kts | 45° |
| 2026-04-29 18:58 | 52.66636 | -9.00511 | 814 ft | 166 kts | 53° |
| 2026-04-29 18:59 | 52.67191 | -8.99097 | 790 ft | 131 kts | 60° |
| 2026-04-29 18:59 | 52.67649 | -8.97875 | 623 ft | 124 kts | 56° |
| 2026-04-29 18:59 | 52.67989 | -8.97118 | 493 ft | 124 kts | 52° |
| 2026-04-29 18:59 | 52.68710 | -8.95661 | 322 ft | 123 kts | 53° |
| 2026-04-29 19:00 | 52.69054 | -8.94924 | 210 ft | 122 kts | 54° |
| 2026-04-29 19:00 | 52.69559 | -8.93837 | 57 ft | 116 kts | 54° |
| 2026-04-29 19:00 | 52.70071 | -8.92753 | 49 ft | 148 kts | 52° |
| 2026-04-29 19:00 | 52.70780 | -8.91319 | 748 ft | 176 kts | 50° |
| 2026-04-29 19:01 | 52.71778 | -8.89810 | 1521 ft | 223 kts | 19° |
| 2026-04-29 19:01 | 52.73315 | -8.90966 | 1996 ft | 295 kts | 302° |
| 2026-04-29 19:01 | 52.73684 | -8.94427 | 2034 ft | 318 kts | 258° |
| 2026-04-29 19:01 | 52.72765 | -8.97693 | 2081 ft | 318 kts | 234° |
| 2026-04-29 19:02 | 52.71432 | -9.00568 | 1933 ft | 313 kts | 222° |
| 2026-04-29 19:02 | 52.69713 | -9.02539 | 1978 ft | 289 kts | 199° |
| 2026-04-29 19:02 | 52.67855 | -9.03500 | 1589 ft | 270 kts | 184° |
| 2026-04-29 19:02 | 52.66207 | -9.03006 | 1455 ft | 223 kts | 138° |
| 2026-04-29 19:03 | 52.65576 | -9.01102 | 1134 ft | 177 kts | 83° |
| 2026-04-29 19:03 | 52.66250 | -8.99700 | 953 ft | 152 kts | 26° |
| 2026-04-29 19:03 | 52.67137 | -8.99096 | 835 ft | 129 kts | 35° |
| 2026-04-29 19:03 | 52.67744 | -8.98036 | 773 ft | 128 kts | 60° |
| 2026-04-29 19:04 | 52.68186 | -8.96721 | 522 ft | 132 kts | 56° |
| 2026-04-29 19:04 | 52.68758 | -8.95569 | 326 ft | 128 kts | 52° |
| 2026-04-29 19:04 | 52.69285 | -8.94432 | 125 ft | 124 kts | 53° |
| 2026-04-29 19:04 | 52.69798 | -8.93313 | 52 ft | 117 kts | 55° |
| 2026-04-29 19:05 | 52.70273 | -8.92279 | 115 ft | 131 kts | 54° |
| 2026-04-29 19:05 | 52.70975 | -8.90821 | 405 ft | 193 kts | 51° |
| 2026-04-29 19:05 | 52.72237 | -8.90141 | 1469 ft | 220 kts | 341° |
| 2026-04-29 19:05 | 52.73186 | -8.92317 | 2364 ft | 271 kts | 281° |
| 2026-04-29 19:06 | 52.73051 | -8.95706 | 2218 ft | 315 kts | 253° |
| 2026-04-29 19:06 | 52.72318 | -8.99120 | 1999 ft | 315 kts | 245° |
| 2026-04-29 19:06 | 52.71474 | -9.06104 | 2876 ft | 327 kts | 291° |
| 2026-04-29 19:07 | 52.72937 | -9.08782 | 1720 ft | 324 kts | 345° |
| 2026-04-29 19:07 | 52.74326 | -9.08316 | 867 ft | 318 kts | 49° |
| 2026-04-29 19:07 | 52.74100 | -9.04445 | 1043 ft | 277 kts | 142° |
| 2026-04-29 19:07 | 52.72299 | -9.04515 | 1504 ft | 290 kts | 208° |
| 2026-04-29 19:08 | 52.71118 | -9.07421 | 2372 ft | 320 kts | 259° |
| 2026-04-29 19:08 | 52.71835 | -9.10575 | 1193 ft | 318 kts | 342° |
| 2026-04-29 19:08 | 52.73418 | -9.09389 | 1726 ft | 243 kts | 75° |
| 2026-04-29 19:08 | 52.73005 | -9.06628 | 2253 ft | 274 kts | 127° |
| 2026-04-29 19:09 | 52.71352 | -9.04997 | 2272 ft | 290 kts | 164° |
| 2026-04-29 19:09 | 52.69326 | -9.05393 | 2109 ft | 307 kts | 201° |
| 2026-04-29 19:09 | 52.67662 | -9.07657 | 2116 ft | 314 kts | 221° |
| 2026-04-29 19:09 | 52.65860 | -9.09463 | 2207 ft | 295 kts | 185° |
| 2026-04-29 19:10 | 52.64018 | -9.08852 | 1880 ft | 264 kts | 137° |
| 2026-04-29 19:10 | 52.63365 | -9.06296 | 1507 ft | 244 kts | 81° |
| 2026-04-29 19:10 | 52.64281 | -9.04194 | 1393 ft | 224 kts | 38° |
| 2026-04-29 19:10 | 52.65491 | -9.02726 | 836 ft | 205 kts | 51° |
| 2026-04-29 19:11 | 52.66175 | -9.00925 | 814 ft | 169 kts | 62° |
| 2026-04-29 19:11 | 52.66767 | -8.99443 | 784 ft | 143 kts | 58° |
| 2026-04-29 19:11 | 52.67364 | -8.98258 | 617 ft | 132 kts | 46° |
| 2026-04-29 19:11 | 52.67946 | -8.97145 | 527 ft | 126 kts | 49° |
| 2026-04-29 19:12 | 52.68509 | -8.96051 | 363 ft | 125 kts | 52° |
| 2026-04-29 19:12 | 52.69070 | -8.94882 | 209 ft | 132 kts | 52° |
| 2026-04-29 19:12 | 52.69621 | -8.93704 | 62 ft | 125 kts | 54° |
| 2026-04-29 19:12 | 52.69943 | -8.92979 | 55 ft | 116 kts | 55° |
| 2026-04-29 19:13 | 52.70828 | -8.91139 | 890 ft | 178 kts | 52° |
| 2026-04-29 19:13 | 52.71764 | -8.89504 | 2017 ft | 213 kts | 36° |
| 2026-04-29 19:13 | 52.73379 | -8.89390 | 2849 ft | 281 kts | 337° |
| 2026-04-29 19:13 | 52.74525 | -8.92181 | 2246 ft | 319 kts | 273° |
| 2026-04-29 19:14 | 52.73873 | -8.95608 | 1678 ft | 314 kts | 239° |
| 2026-04-29 19:14 | 52.72777 | -8.98687 | 1762 ft | 316 kts | 240° |
| 2026-04-29 19:14 | 52.72143 | -9.02128 | 2391 ft | 324 kts | 274° |
| 2026-04-29 19:14 | 52.73087 | -9.05431 | 1846 ft | 325 kts | 328° |
| 2026-04-29 19:15 | 52.74840 | -9.04646 | 1436 ft | 270 kts | 82° |
| 2026-04-29 19:15 | 52.73714 | -9.02614 | 2313 ft | 277 kts | 152° |
| 2026-04-29 19:15 | 52.71717 | -9.02498 | 1606 ft | 301 kts | 195° |
| 2026-04-29 19:15 | 52.69990 | -9.04080 | 2383 ft | 284 kts | 209° |
| 2026-04-29 19:16 | 52.68416 | -9.05951 | 2529 ft | 276 kts | 211° |
| 2026-04-29 19:16 | 52.66904 | -9.07891 | 2100 ft | 271 kts | 213° |
| 2026-04-29 19:16 | 52.65389 | -9.08988 | 1917 ft | 213 kts | 158° |
| 2026-04-29 19:16 | 52.64757 | -9.07352 | 1621 ft | 171 kts | 83° |
| 2026-04-29 19:17 | 52.65222 | -9.05643 | 1697 ft | 157 kts | 61° |
| 2026-04-29 19:17 | 52.65782 | -9.04149 | 1389 ft | 150 kts | 63° |
| 2026-04-29 19:17 | 52.66205 | -9.02681 | 1230 ft | 132 kts | 72° |
| 2026-04-29 19:17 | 52.66526 | -9.01182 | 1103 ft | 137 kts | 75° |
| 2026-04-29 19:18 | 52.66873 | -8.99726 | 910 ft | 140 kts | 66° |
| 2026-04-29 19:18 | 52.67205 | -8.98817 | 824 ft | 141 kts | 56° |
| 2026-04-29 19:18 | 52.68034 | -8.97177 | 585 ft | 136 kts | 53° |
| 2026-04-29 19:18 | 52.68592 | -8.95935 | 378 ft | 137 kts | 52° |
| 2026-04-29 19:19 | 52.69182 | -8.94653 | 184 ft | 141 kts | 53° |
| 2026-04-29 19:19 | 52.69765 | -8.93401 | 60 ft | 132 kts | 54° |
| 2026-04-29 19:19 | 52.70248 | -8.92336 | 37 ft | 93 kts | 45° |
| 2026-04-29 19:19 | 52.70572 | -8.91680 | 30 ft | 65 kts | 53° |
| 2026-04-29 19:20 | 52.70734 | -8.91328 | 27 ft | 24 kts | 55° |
| 2026-04-29 19:20 | 52.70749 | -8.91176 | 27 ft | 0 kts | 129° |
| 2026-04-29 19:20 | 52.70726 | -8.91165 | 27 ft | 14 kts | 166° |
| 2026-04-29 19:20 | 52.70583 | -8.91128 | 28 ft | 25 kts | 168° |